Terminal Aerodrome Forecast
Issued by NWS

Home | Current Version | Previous Version | Text Only | Print | Product List | Glossary On
Versions: 1 2 3 4 5 6 7 8 9 10 11 12
000
FTUS42 TJSJ 310539
TAFKPK
TAF
TKPK 310539Z 3106/0106 05010KT P6SM FEW020
     FM311600 07015KT P6SM VCSH SCT018 SCT035
     FM312300 06010KT P6SM VCTS BKN020CB BKN040
      AMD NOT SKED TIL 311100=

USA.gov is the U.S. government's official web portal to all federal, state and local government web resources and services.